createdAt,value
2023-03-25T00:01:33.259Z,29.64
2023-03-25T00:04:04.355Z,29.56
2023-03-25T00:06:35.503Z,29.97
2023-03-25T00:09:07.450Z,29.94
2023-03-25T00:11:37.773Z,30.04
2023-03-25T00:14:06.555Z,29.96
2023-03-25T00:16:48.685Z,28.55
2023-03-25T00:19:16.891Z,28.82
2023-03-25T00:21:44.959Z,28.73
2023-03-25T00:24:17.940Z,28.54
2023-03-25T00:26:49.222Z,28.63
2023-03-25T00:29:18.288Z,29.05
2023-03-25T00:31:47.567Z,28.71
2023-03-25T00:34:16.987Z,28.78
2023-03-25T00:36:48.934Z,28.94
2023-03-25T00:39:17.185Z,29.65
2023-03-25T00:41:45.305Z,29.31
2023-03-25T00:44:14.361Z,29.58
2023-03-25T00:46:43.048Z,29.81
2023-03-25T00:49:13.917Z,29.70
2023-03-25T00:51:53.154Z,29.46
2023-03-25T00:54:23.754Z,29.14
2023-03-25T00:56:53.445Z,28.45
2023-03-25T00:59:22.521Z,28.60
2023-03-25T01:01:53.455Z,28.59
2023-03-25T01:04:22.119Z,28.80
2023-03-25T01:06:52.137Z,29.10
2023-03-25T01:09:21.055Z,29.13
2023-03-25T01:11:52.190Z,28.72
2023-03-25T01:14:21.391Z,28.64
2023-03-25T01:16:50.306Z,28.34
2023-03-25T01:19:21.661Z,28.19
2023-03-25T01:21:51.102Z,28.29
2023-03-25T01:24:19.353Z,28.04
2023-03-25T01:26:47.560Z,27.88
2023-03-25T01:29:18.104Z,28.10
2023-03-25T01:31:46.193Z,28.05
2023-03-25T01:34:15.626Z,28.34
2023-03-25T01:36:46.899Z,28.51
2023-03-25T01:39:18.845Z,28.26
2023-03-25T01:41:50.675Z,28.01
2023-03-25T01:44:19.331Z,28.53
2023-03-25T01:46:50.722Z,28.81
2023-03-25T01:49:28.779Z,29.11
2023-03-25T01:52:04.010Z,29.23
2023-03-25T01:54:32.815Z,29.13
2023-03-25T01:57:00.979Z,29.49
2023-03-25T01:59:29.405Z,29.44
2023-03-25T02:01:58.379Z,28.91
2023-03-25T02:04:59.288Z,28.71
2023-03-25T02:07:31.058Z,28.61
2023-03-25T02:09:59.703Z,28.73
2023-03-25T02:12:28.830Z,28.82
2023-03-25T02:15:02.520Z,28.75
2023-03-25T02:17:59.811Z,28.66
2023-03-25T02:20:44.856Z,28.72
2023-03-25T02:23:15.940Z,28.69
2023-03-25T02:26:05.890Z,28.89
2023-03-25T02:29:07.402Z,28.83
2023-03-25T02:32:07.853Z,28.32
2023-03-25T02:35:01.129Z,28.53
2023-03-25T02:37:52.555Z,29.27
2023-03-25T02:40:25.738Z,29.27
2023-03-25T02:42:56.980Z,28.40
2023-03-25T02:45:27.308Z,28.48
2023-03-25T02:48:00.078Z,28.63
2023-03-25T02:50:40.515Z,28.51
2023-03-25T02:53:11.329Z,28.52
2023-03-25T02:55:42.394Z,28.41
2023-03-25T02:58:13.499Z,28.27
2023-03-25T03:00:42.157Z,28.17
2023-03-25T03:03:12.267Z,27.97
2023-03-25T03:05:44.049Z,28.20
2023-03-25T03:08:49.343Z,28.27
2023-03-25T03:11:21.969Z,27.79
2023-03-25T03:14:09.167Z,27.64
2023-03-25T03:17:25.985Z,27.83
2023-03-25T03:20:08.619Z,28.03
2023-03-25T03:22:52.682Z,27.87
2023-03-25T03:25:36.822Z,28.18
2023-03-25T03:28:45.575Z,28.07
2023-03-25T03:31:48.836Z,28.29
2023-03-25T03:34:54.775Z,28.85
2023-03-25T03:37:26.588Z,28.91
2023-03-25T03:39:56.160Z,29.55
2023-03-25T03:42:29.030Z,29.34
2023-03-25T03:45:00.700Z,29.28
2023-03-25T03:47:32.041Z,28.74
2023-03-25T03:50:09.723Z,29.19
2023-03-25T03:52:45.702Z,28.90
2023-03-25T03:55:29.344Z,28.43
2023-03-25T04:01:27.320Z,24.52
2023-03-25T04:04:00.423Z,26.61
2023-03-25T04:06:50.024Z,26.99
2023-03-25T04:09:41.237Z,27.28
2023-03-25T04:12:20.778Z,27.11
2023-03-25T04:14:49.505Z,28.00
2023-03-25T04:17:16.962Z,27.41
2023-03-25T04:19:48.533Z,27.30
2023-03-25T04:22:19.086Z,27.58
2023-03-25T04:24:49.181Z,27.64
2023-03-25T04:27:16.286Z,27.57
2023-03-25T04:29:47.171Z,27.57
2023-03-25T04:32:16.376Z,27.60
2023-03-25T04:34:43.403Z,27.71
2023-03-25T04:37:10.905Z,27.97
2023-03-25T04:39:39.161Z,27.91
2023-03-25T04:42:06.194Z,27.83
2023-03-25T04:44:33.010Z,27.65
2023-03-25T04:47:00.218Z,27.49
2023-03-25T04:49:27.712Z,27.91
2023-03-25T04:51:55.094Z,28.37
2023-03-25T04:54:23.065Z,28.21
2023-03-25T04:56:50.570Z,28.28
2023-03-25T04:59:23.654Z,28.31
2023-03-25T05:01:52.194Z,27.80
2023-03-25T05:04:19.866Z,27.91
2023-03-25T05:06:52.434Z,28.32
2023-03-25T05:09:21.459Z,28.30
2023-03-25T05:11:48.740Z,28.39
2023-03-25T05:14:19.926Z,28.23
2023-03-25T05:16:47.461Z,28.25
2023-03-25T05:19:14.659Z,28.19
2023-03-25T05:21:42.112Z,28.15
2023-03-25T05:24:10.155Z,28.53
2023-03-25T05:26:39.159Z,28.55
2023-03-25T05:29:13.371Z,28.70
2023-03-25T05:31:41.088Z,28.48
2023-03-25T05:34:08.685Z,28.76
2023-03-25T05:36:35.465Z,28.73
2023-03-25T05:39:04.662Z,29.13
2023-03-25T05:41:32.453Z,29.06
2023-03-25T05:44:14.743Z,29.35
2023-03-25T05:46:41.856Z,29.09
2023-03-25T05:49:08.431Z,28.84
2023-03-25T05:51:44.441Z,29.40
2023-03-25T05:54:11.949Z,29.38
2023-03-25T05:56:39.188Z,28.80
2023-03-25T05:59:07.555Z,28.00
2023-03-25T06:01:37.246Z,27.79
2023-03-25T06:04:09.314Z,27.55
2023-03-25T06:06:36.273Z,28.27
2023-03-25T06:09:05.667Z,27.97
2023-03-25T06:11:37.421Z,27.91
2023-03-25T06:14:04.757Z,27.59
2023-03-25T06:16:36.238Z,27.86
2023-03-25T06:19:03.075Z,27.93
2023-03-25T06:21:32.931Z,28.25
2023-03-25T06:24:07.989Z,28.37
2023-03-25T06:26:35.434Z,28.10
2023-03-25T06:29:04.665Z,28.28
2023-03-25T06:31:32.879Z,28.40
2023-03-25T06:34:00.743Z,28.73
2023-03-25T06:36:31.858Z,28.99
2023-03-25T06:38:58.812Z,28.93
2023-03-25T06:41:35.168Z,28.70
2023-03-25T06:44:24.711Z,28.28
2023-03-25T06:46:51.941Z,27.86
2023-03-25T06:49:39.280Z,27.89
2023-03-25T06:52:05.970Z,28.06
2023-03-25T06:54:33.291Z,27.76
2023-03-25T06:56:59.950Z,27.94
2023-03-25T06:59:31.886Z,27.50
2023-03-25T07:01:59.103Z,27.47
2023-03-25T07:04:26.097Z,27.97
2023-03-25T07:06:57.760Z,27.88
2023-03-25T07:09:24.852Z,27.84
2023-03-25T07:11:51.652Z,27.47
2023-03-25T07:14:20.440Z,27.74
2023-03-25T07:16:47.154Z,27.95
2023-03-25T07:19:17.716Z,27.98
2023-03-25T07:21:47.809Z,27.99
2023-03-25T07:24:15.373Z,27.94
2023-03-25T07:26:41.908Z,28.09
2023-03-25T07:29:11.545Z,28.48
2023-03-25T07:31:41.299Z,28.43
2023-03-25T07:34:08.026Z,28.35
2023-03-25T07:36:34.789Z,28.28
2023-03-25T07:39:01.665Z,28.53
2023-03-25T07:41:28.617Z,28.93
2023-03-25T07:44:06.267Z,28.64
2023-03-25T07:46:35.967Z,28.35
2023-03-25T07:49:03.560Z,28.92
2023-03-25T07:51:32.442Z,28.91
2023-03-25T07:54:05.597Z,28.36
2023-03-25T07:56:34.207Z,28.92
2023-03-25T07:59:01.826Z,28.98
2023-03-25T08:01:28.745Z,29.03
2023-03-25T08:03:55.496Z,29.47
2023-03-25T08:06:27.761Z,29.56
2023-03-25T08:08:55.280Z,29.09
2023-03-25T08:11:21.891Z,28.57
2023-03-25T08:13:49.307Z,28.28
2023-03-25T08:16:16.005Z,28.83
2023-03-25T08:18:44.365Z,29.15
2023-03-25T08:21:12.248Z,29.05
2023-03-25T08:23:40.501Z,28.89
2023-03-25T08:26:07.454Z,28.78
2023-03-25T08:28:34.108Z,29.20
2023-03-25T08:31:01.919Z,29.25
2023-03-25T08:33:42.328Z,29.21
2023-03-25T08:36:13.189Z,29.61
2023-03-25T08:38:41.014Z,29.45
2023-03-25T08:41:07.840Z,29.98
2023-03-25T08:43:35.274Z,30.34
2023-03-25T08:46:06.107Z,29.31
2023-03-25T08:48:37.209Z,29.54
2023-03-25T08:51:06.670Z,29.21
2023-03-25T08:53:33.255Z,29.62
2023-03-25T08:56:00.047Z,29.59
2023-03-25T08:58:27.325Z,29.23
2023-03-25T09:00:55.091Z,29.51
2023-03-25T09:03:22.310Z,29.58
2023-03-25T09:05:49.455Z,29.69
2023-03-25T09:08:17.799Z,29.61
2023-03-25T09:10:44.534Z,30.73
2023-03-25T09:13:14.091Z,31.15
2023-03-25T09:15:40.954Z,30.83
2023-03-25T09:18:08.382Z,30.26
2023-03-25T09:20:36.879Z,29.80
2023-03-25T09:23:03.798Z,30.27
2023-03-25T09:25:37.025Z,30.58
2023-03-25T09:28:04.069Z,30.70
2023-03-25T09:30:30.809Z,30.15
2023-03-25T09:32:58.104Z,29.73
2023-03-25T09:35:25.617Z,29.85
2023-03-25T09:37:54.758Z,29.63
2023-03-25T09:40:21.914Z,29.74
2023-03-25T09:42:58.115Z,29.92
2023-03-25T09:45:44.038Z,30.05
2023-03-25T09:48:37.305Z,30.43
2023-03-25T09:51:15.715Z,30.99
2023-03-25T09:53:47.908Z,31.37
2023-03-25T09:56:22.627Z,30.89
2023-03-25T09:58:56.963Z,30.29
2023-03-25T10:01:37.889Z,29.72
2023-03-25T10:04:11.016Z,29.53
2023-03-25T10:06:57.640Z,29.70
2023-03-25T10:09:45.825Z,30.19
2023-03-25T10:12:51.913Z,30.43
2023-03-25T10:15:43.663Z,30.69
2023-03-25T10:18:24.151Z,30.67
2023-03-25T10:21:06.669Z,30.93
2023-03-25T10:23:47.879Z,31.30
2023-03-25T10:26:19.855Z,30.59
2023-03-25T10:28:51.872Z,31.00
2023-03-25T10:31:24.346Z,30.66
2023-03-25T10:34:03.913Z,29.99
2023-03-25T10:36:35.978Z,30.67
2023-03-25T10:39:04.438Z,30.93
2023-03-25T10:41:38.715Z,30.84
2023-03-25T10:44:09.244Z,31.06
2023-03-25T10:46:46.843Z,31.26
2023-03-25T10:49:26.059Z,31.16
2023-03-25T10:51:56.791Z,31.16
2023-03-25T10:54:34.157Z,31.11
2023-03-25T10:57:06.574Z,31.06
2023-03-25T10:59:37.116Z,30.98
2023-03-25T11:02:18.204Z,31.19
2023-03-25T11:04:51.087Z,31.10
2023-03-25T11:07:19.633Z,30.74
2023-03-25T11:09:46.835Z,30.90
2023-03-25T11:12:13.834Z,31.34
2023-03-25T11:14:40.612Z,31.28
2023-03-25T11:17:14.772Z,30.89
2023-03-25T11:19:55.424Z,30.24
2023-03-25T11:22:24.871Z,30.34
2023-03-25T11:25:01.185Z,30.70
2023-03-25T11:27:29.808Z,31.39
2023-03-25T11:30:03.108Z,31.26
2023-03-25T11:32:36.752Z,31.23
2023-03-25T11:35:18.886Z,31.12
2023-03-25T11:37:48.420Z,31.20
2023-03-25T11:40:16.840Z,31.54
2023-03-25T11:42:55.360Z,31.89
2023-03-25T11:45:38.464Z,31.95
2023-03-25T11:48:15.214Z,31.90
2023-03-25T11:50:53.494Z,31.89
2023-03-25T11:53:26.786Z,31.91
2023-03-25T11:55:55.327Z,31.79
2023-03-25T11:58:26.734Z,31.56
2023-03-25T12:01:05.426Z,31.34
2023-03-25T12:03:34.270Z,31.52
2023-03-25T12:06:04.422Z,31.37
2023-03-25T12:08:51.349Z,31.58
2023-03-25T12:11:21.383Z,31.59
2023-03-25T12:14:03.435Z,31.75
2023-03-25T12:17:08.264Z,31.84
2023-03-25T12:20:00.526Z,31.64
2023-03-25T12:22:45.992Z,31.82
2023-03-25T12:25:26.442Z,31.67
2023-03-25T12:28:05.983Z,31.63
2023-03-25T12:30:39.444Z,31.83
2023-03-25T12:33:45.853Z,31.93
2023-03-25T12:36:28.032Z,32.01
2023-03-25T12:39:17.783Z,31.62
2023-03-25T12:42:07.696Z,31.79
2023-03-25T12:44:37.273Z,31.69
2023-03-25T12:47:19.392Z,31.74
2023-03-25T12:50:13.313Z,31.62
2023-03-25T12:52:47.821Z,31.75
2023-03-25T12:55:20.480Z,31.67
2023-03-25T12:57:56.279Z,31.92
2023-03-25T13:00:39.110Z,31.88
2023-03-25T13:03:24.441Z,32.14
2023-03-25T13:06:14.632Z,32.46
2023-03-25T13:08:53.348Z,32.79
2023-03-25T13:11:27.882Z,32.98
2023-03-25T13:13:57.888Z,32.50
2023-03-25T13:16:27.053Z,31.91
2023-03-25T13:19:02.374Z,31.72
2023-03-25T13:21:34.882Z,31.84
2023-03-25T13:24:05.101Z,31.81
2023-03-25T13:26:32.050Z,31.52
2023-03-25T13:29:13.684Z,31.58
2023-03-25T13:31:41.919Z,31.30
2023-03-25T13:34:47.987Z,31.50
2023-03-25T13:37:23.983Z,31.83
2023-03-25T13:39:57.426Z,32.01
2023-03-25T13:42:33.149Z,31.93
2023-03-25T13:45:00.322Z,31.58
2023-03-25T13:47:33.299Z,31.66
2023-03-25T13:50:08.007Z,31.65
2023-03-25T13:52:38.856Z,31.64
2023-03-25T13:55:15.085Z,31.89
2023-03-25T13:58:02.846Z,31.94
2023-03-25T14:00:46.764Z,31.69
2023-03-25T14:03:40.849Z,32.06
2023-03-25T14:06:19.911Z,32.01
2023-03-25T14:08:52.816Z,32.19
2023-03-25T14:11:39.920Z,32.51
2023-03-25T14:14:09.938Z,32.39
2023-03-25T14:16:59.520Z,32.43
2023-03-25T14:19:37.374Z,32.25
2023-03-25T14:22:27.827Z,32.08
2023-03-25T14:24:55.981Z,32.40
2023-03-25T14:27:27.205Z,32.04
2023-03-25T14:29:59.720Z,31.79
2023-03-25T14:32:32.778Z,31.81
2023-03-25T14:35:31.992Z,31.83
2023-03-25T14:38:08.432Z,31.82
2023-03-25T14:40:47.404Z,31.98
2023-03-25T14:43:32.448Z,31.66
2023-03-25T14:46:10.976Z,31.68
2023-03-25T14:49:05.176Z,31.91
2023-03-25T14:51:34.143Z,31.82
2023-03-25T14:54:21.128Z,31.59
2023-03-25T14:57:03.614Z,31.79
2023-03-25T14:59:31.871Z,31.05
2023-03-25T15:02:04.432Z,31.26
2023-03-25T15:04:37.234Z,31.74
2023-03-25T15:07:09.234Z,31.57
2023-03-25T15:09:53.022Z,31.49
2023-03-25T15:12:23.528Z,31.52
2023-03-25T15:14:55.628Z,31.53
2023-03-25T15:17:43.977Z,31.65
2023-03-25T15:20:22.741Z,31.14
2023-03-25T15:23:35.689Z,30.97
2023-03-25T15:26:03.025Z,30.93
2023-03-25T15:28:44.952Z,30.90
2023-03-25T15:31:31.335Z,31.00
2023-03-25T15:34:03.464Z,30.64
2023-03-25T15:36:30.616Z,29.96
2023-03-25T15:39:18.666Z,30.16
2023-03-25T15:41:55.654Z,30.41
2023-03-25T15:44:42.668Z,30.65
2023-03-25T15:47:32.430Z,30.49
2023-03-25T15:50:29.984Z,30.47
2023-03-25T15:53:02.922Z,30.15
2023-03-25T15:55:39.232Z,30.27
2023-03-25T15:58:25.624Z,29.92
2023-03-25T16:00:55.528Z,30.15
2023-03-25T16:03:26.493Z,29.93
2023-03-25T16:05:58.953Z,29.29
2023-03-25T16:08:40.461Z,29.06
2023-03-25T16:11:19.970Z,29.22
2023-03-25T16:13:47.152Z,29.16
2023-03-25T16:17:33.164Z,25.51
2023-03-25T16:20:01.430Z,27.44
2023-03-25T16:22:38.918Z,27.72
2023-03-25T16:25:12.803Z,27.85
2023-03-25T16:27:45.877Z,28.08
2023-03-25T16:30:26.011Z,28.31
2023-03-25T16:33:10.807Z,28.39
2023-03-25T16:36:04.292Z,28.42
2023-03-25T16:38:32.550Z,28.35
2023-03-25T16:41:07.593Z,28.52
2023-03-25T16:43:35.786Z,28.49
2023-03-25T16:46:04.640Z,28.55
2023-03-25T16:48:34.766Z,28.64
2023-03-25T16:51:23.555Z,28.66
2023-03-25T16:53:56.282Z,28.37
2023-03-25T16:56:31.535Z,28.37
2023-03-25T16:59:06.350Z,28.48
2023-03-25T17:01:39.584Z,28.53
2023-03-25T17:04:13.786Z,28.30
2023-03-25T17:06:53.336Z,28.38
2023-03-25T17:09:25.325Z,28.42
2023-03-25T17:11:56.833Z,28.36
2023-03-25T17:14:33.823Z,28.32
2023-03-25T17:17:12.474Z,28.36
2023-03-25T17:19:47.871Z,28.16
2023-03-25T17:22:45.061Z,28.36
2023-03-25T17:25:27.447Z,28.44
2023-03-25T17:27:56.936Z,28.35
2023-03-25T17:30:28.256Z,28.43
2023-03-25T17:33:19.449Z,28.46
2023-03-25T17:35:54.457Z,28.48
2023-03-25T17:38:34.027Z,28.53
2023-03-25T17:41:07.103Z,28.27
2023-03-25T17:43:37.955Z,28.12
2023-03-25T17:46:06.988Z,27.76
2023-03-25T17:48:36.845Z,27.79
2023-03-25T17:51:05.749Z,27.96
2023-03-25T17:53:35.349Z,28.02
2023-03-25T17:56:06.511Z,27.92
2023-03-25T17:58:37.130Z,27.70
2023-03-25T18:01:05.747Z,27.71
2023-03-25T18:03:35.961Z,27.82
2023-03-25T18:06:05.346Z,27.58
2023-03-25T18:08:34.994Z,27.71
2023-03-25T18:11:03.336Z,27.69
2023-03-25T18:13:32.233Z,27.62
2023-03-25T18:16:03.419Z,27.62
2023-03-25T18:18:32.144Z,27.60
2023-03-25T18:21:03.728Z,27.42
2023-03-25T18:23:33.431Z,27.61
2023-03-25T18:26:01.786Z,27.75
2023-03-25T18:28:34.578Z,27.81
2023-03-25T18:31:03.600Z,28.07
2023-03-25T18:33:34.696Z,28.09
2023-03-25T18:36:03.282Z,28.10
2023-03-25T18:38:31.650Z,28.18
2023-03-25T18:41:00.806Z,28.12
2023-03-25T18:43:30.540Z,28.32
2023-03-25T18:45:59.245Z,28.29
2023-03-25T18:48:28.525Z,28.27
2023-03-25T18:50:58.171Z,28.12
2023-03-25T18:53:28.070Z,28.04
2023-03-25T18:55:59.989Z,28.04
2023-03-25T18:58:31.389Z,27.79
2023-03-25T19:01:00.707Z,27.78
2023-03-25T19:03:38.967Z,27.67
2023-03-25T19:06:13.409Z,27.58
2023-03-25T19:08:43.699Z,27.59
2023-03-25T19:11:21.174Z,27.69
2023-03-25T19:13:53.407Z,27.85
2023-03-25T19:16:23.374Z,27.92
2023-03-25T19:18:52.216Z,28.05
2023-03-25T19:21:26.344Z,27.96
2023-03-25T19:23:54.640Z,27.93
2023-03-25T19:26:22.631Z,27.80
2023-03-25T19:28:52.644Z,27.74
2023-03-25T19:31:21.252Z,27.37
2023-03-25T19:33:59.086Z,27.53
2023-03-25T19:36:27.474Z,27.64
2023-03-25T19:39:05.463Z,27.37
2023-03-25T19:41:42.192Z,27.55
2023-03-25T19:44:10.886Z,27.75
2023-03-25T19:46:39.555Z,28.14
2023-03-25T19:49:07.937Z,28.06
2023-03-25T19:51:36.127Z,27.75
2023-03-25T19:54:05.153Z,27.63
2023-03-25T19:56:33.260Z,27.46
2023-03-25T19:59:01.349Z,27.48
2023-03-25T20:01:31.082Z,27.37
2023-03-25T20:04:00.948Z,27.47
2023-03-25T20:06:30.715Z,27.45
2023-03-25T20:08:59.012Z,27.62
2023-03-25T20:11:27.026Z,27.09
2023-03-25T20:14:06.477Z,26.91
2023-03-25T20:16:36.807Z,27.14
2023-03-25T20:19:04.908Z,27.19
2023-03-25T20:21:37.107Z,27.62
2023-03-25T20:24:06.361Z,27.71
2023-03-25T20:26:34.403Z,27.51
2023-03-25T20:29:03.119Z,27.65
2023-03-25T20:31:33.337Z,27.44
2023-03-25T20:34:01.521Z,27.76
2023-03-25T20:36:30.871Z,27.76
2023-03-25T20:39:00.863Z,27.66
2023-03-25T20:41:29.267Z,27.47
2023-03-25T20:43:57.371Z,27.73
2023-03-25T20:46:28.563Z,27.57
2023-03-25T20:48:57.954Z,27.63
2023-03-25T20:51:26.722Z,27.08
2023-03-25T20:53:57.030Z,26.05
2023-03-25T20:56:25.416Z,25.99
2023-03-25T20:58:55.124Z,25.84
2023-03-25T21:01:23.653Z,26.05
2023-03-25T21:03:53.353Z,26.07
2023-03-25T21:06:25.640Z,25.91
2023-03-25T21:08:58.324Z,25.58
2023-03-25T21:11:29.426Z,25.88
2023-03-25T21:13:57.497Z,25.81
2023-03-25T21:16:26.517Z,25.90
2023-03-25T21:18:56.714Z,25.94
2023-03-25T21:21:25.900Z,26.39
2023-03-25T21:23:53.877Z,26.00
2023-03-25T21:26:26.642Z,25.33
2023-03-25T21:28:55.012Z,25.35
2023-03-25T21:31:23.223Z,25.48
2023-03-25T21:33:52.993Z,25.80
2023-03-25T21:36:23.347Z,25.64
2023-03-25T21:38:55.721Z,25.21
2023-03-25T21:41:24.939Z,25.41
2023-03-25T21:43:53.516Z,25.92
2023-03-25T21:46:27.660Z,26.08
2023-03-25T21:48:58.569Z,26.08
2023-03-25T21:51:30.486Z,26.14
2023-03-25T21:54:00.455Z,26.32
2023-03-25T21:56:31.688Z,25.87
2023-03-25T21:59:02.052Z,25.98
2023-03-25T22:01:32.654Z,25.92
2023-03-25T22:04:02.536Z,25.89
2023-03-25T22:06:32.005Z,25.82
2023-03-25T22:09:05.601Z,25.78
2023-03-25T22:11:35.721Z,26.17
2023-03-25T22:14:05.489Z,26.03
2023-03-25T22:16:34.858Z,26.37
2023-03-25T22:19:03.359Z,26.36
2023-03-25T22:21:37.175Z,26.23
2023-03-25T22:24:09.130Z,26.32
2023-03-25T22:26:43.109Z,26.10
2023-03-25T22:29:13.632Z,25.78
2023-03-25T22:31:45.660Z,26.05
2023-03-25T22:34:15.293Z,26.03
2023-03-25T22:36:49.826Z,26.02
2023-03-25T22:39:19.709Z,26.04
2023-03-25T22:41:48.856Z,25.84
2023-03-25T22:44:18.239Z,26.16
2023-03-25T22:46:51.585Z,25.96
2023-03-25T22:49:20.712Z,26.14
2023-03-25T22:51:51.463Z,25.98
2023-03-25T22:54:19.564Z,25.77
2023-03-25T22:56:47.935Z,25.87
2023-03-25T22:59:16.944Z,25.68
2023-03-25T23:01:49.466Z,25.69
2023-03-25T23:04:18.210Z,25.38
2023-03-25T23:06:53.872Z,24.75
2023-03-25T23:09:45.251Z,25.74
2023-03-25T23:12:31.464Z,25.45
2023-03-25T23:15:05.254Z,25.73
2023-03-25T23:17:35.211Z,25.78
2023-03-25T23:20:07.152Z,25.47
2023-03-25T23:22:35.662Z,25.32
2023-03-25T23:25:05.175Z,25.53
2023-03-25T23:27:34.052Z,25.73
2023-03-25T23:30:05.134Z,25.62
2023-03-25T23:32:34.317Z,24.96
2023-03-25T23:35:03.248Z,24.58
2023-03-25T23:37:34.022Z,24.72
2023-03-25T23:40:02.512Z,24.94
2023-03-25T23:42:34.914Z,25.06
2023-03-25T23:45:05.012Z,25.22
2023-03-25T23:47:33.152Z,25.14
2023-03-25T23:50:02.123Z,24.96
2023-03-25T23:52:30.994Z,25.68
2023-03-25T23:54:59.321Z,25.23
2023-03-25T23:57:27.564Z,24.91
2023-03-25T23:59:55.838Z,24.72
